sensor_id;sensor_type;location;lat;lon;timestamp;pressure;altitude;pressure_sealevel;temperature;humidity
29371;BME280;16357;52.188;7.838;2023-08-20T00:01:14;101366.53;;;22.55;58.07
29371;BME280;16357;52.188;7.838;2023-08-20T00:03:41;101366.78;;;22.54;58.03
29371;BME280;16357;52.188;7.838;2023-08-20T00:06:10;101361.53;;;22.52;58.15
29371;BME280;16357;52.188;7.838;2023-08-20T00:08:36;101357.13;;;22.51;58.37
29371;BME280;16357;52.188;7.838;2023-08-20T00:11:03;101366.59;;;22.49;57.99
29371;BME280;16357;52.188;7.838;2023-08-20T00:13:31;101371.22;;;22.48;58.48
29371;BME280;16357;52.188;7.838;2023-08-20T00:15:58;101369.75;;;22.46;58.53
29371;BME280;16357;52.188;7.838;2023-08-20T00:18:25;101370.00;;;22.44;58.41
29371;BME280;16357;52.188;7.838;2023-08-20T00:20:53;101371.28;;;22.42;58.40
29371;BME280;16357;52.188;7.838;2023-08-20T00:23:20;101378.84;;;22.40;58.43
29371;BME280;16357;52.188;7.838;2023-08-20T00:25:47;101376.56;;;22.37;58.59
29371;BME280;16357;52.188;7.838;2023-08-20T00:28:14;101372.56;;;22.32;59.15
29371;BME280;16357;52.188;7.838;2023-08-20T00:30:40;101373.25;;;22.28;59.11
29371;BME280;16357;52.188;7.838;2023-08-20T00:33:06;101376.38;;;22.25;59.08
29371;BME280;16357;52.188;7.838;2023-08-20T00:35:33;101377.69;;;22.22;59.65
29371;BME280;16357;52.188;7.838;2023-08-20T00:37:59;101369.91;;;22.19;59.77
29371;BME280;16357;52.188;7.838;2023-08-20T00:40:26;101362.94;;;22.17;59.65
29371;BME280;16357;52.188;7.838;2023-08-20T00:42:52;101366.13;;;22.13;60.02
29371;BME280;16357;52.188;7.838;2023-08-20T00:45:19;101380.84;;;22.12;59.93
29371;BME280;16357;52.188;7.838;2023-08-20T00:47:45;101380.44;;;22.09;59.91
29371;BME280;16357;52.188;7.838;2023-08-20T00:50:12;101381.50;;;22.08;60.45
29371;BME280;16357;52.188;7.838;2023-08-20T00:52:38;101375.41;;;22.06;60.42
29371;BME280;16357;52.188;7.838;2023-08-20T00:55:08;101381.09;;;22.04;60.03
29371;BME280;16357;52.188;7.838;2023-08-20T00:57:38;101385.09;;;22.02;60.26
29371;BME280;16357;52.188;7.838;2023-08-20T01:00:07;101386.38;;;21.99;60.08
29371;BME280;16357;52.188;7.838;2023-08-20T01:02:38;101387.03;;;21.95;60.24
29371;BME280;16357;52.188;7.838;2023-08-20T01:05:07;101376.28;;;21.93;60.11
29371;BME280;16357;52.188;7.838;2023-08-20T01:07:57;101378.63;;;21.89;59.89
29371;BME280;16357;52.188;7.838;2023-08-20T01:10:53;101392.09;;;21.84;59.81
29371;BME280;16357;52.188;7.838;2023-08-20T01:13:23;101379.31;;;21.78;60.13
29371;BME280;16357;52.188;7.838;2023-08-20T01:15:49;101387.06;;;21.75;60.21
29371;BME280;16357;52.188;7.838;2023-08-20T01:18:16;101392.34;;;21.69;60.45
29371;BME280;16357;52.188;7.838;2023-08-20T01:20:52;101386.47;;;21.66;60.41
29371;BME280;16357;52.188;7.838;2023-08-20T01:26:22;101381.88;;;21.60;60.70
29371;BME280;16357;52.188;7.838;2023-08-20T01:28:50;101395.97;;;21.57;61.18
29371;BME280;16357;52.188;7.838;2023-08-20T01:31:18;101388.16;;;21.54;61.30
29371;BME280;16357;52.188;7.838;2023-08-20T01:33:45;101386.72;;;21.51;61.70
29371;BME280;16357;52.188;7.838;2023-08-20T01:36:11;101381.91;;;21.46;61.27
29371;BME280;16357;52.188;7.838;2023-08-20T01:38:38;101387.81;;;21.43;61.61
29371;BME280;16357;52.188;7.838;2023-08-20T01:41:04;101381.72;;;21.41;61.90
29371;BME280;16357;52.188;7.838;2023-08-20T01:43:31;101381.72;;;21.41;61.60
29371;BME280;16357;52.188;7.838;2023-08-20T01:45:58;101408.16;;;21.41;61.62
29371;BME280;16357;52.188;7.838;2023-08-20T01:48:24;101405.63;;;21.39;61.39
29371;BME280;16357;52.188;7.838;2023-08-20T01:50:50;101402.25;;;21.37;61.16
29371;BME280;16357;52.188;7.838;2023-08-20T01:53:17;101418.22;;;21.34;61.35
29371;BME280;16357;52.188;7.838;2023-08-20T01:55:43;101408.75;;;21.30;60.95
29371;BME280;16357;52.188;7.838;2023-08-20T01:58:10;101397.44;;;21.26;61.51
29371;BME280;16357;52.188;7.838;2023-08-20T02:00:36;101414.22;;;21.23;61.71
29371;BME280;16357;52.188;7.838;2023-08-20T02:03:03;101417.38;;;21.20;61.68
29371;BME280;16357;52.188;7.838;2023-08-20T02:05:30;101414.03;;;21.18;61.73
29371;BME280;16357;52.188;7.838;2023-08-20T02:07:56;101418.00;;;21.15;62.02
29371;BME280;16357;52.188;7.838;2023-08-20T02:10:23;101418.22;;;21.14;61.95
29371;BME280;16357;52.188;7.838;2023-08-20T02:12:49;101415.72;;;21.12;61.95
29371;BME280;16357;52.188;7.838;2023-08-20T02:15:16;101417.59;;;21.12;61.95
29371;BME280;16357;52.188;7.838;2023-08-20T02:17:42;101415.91;;;21.11;62.01
29371;BME280;16357;52.188;7.838;2023-08-20T02:20:09;101416.13;;;21.09;61.86
29371;BME280;16357;52.188;7.838;2023-08-20T02:22:36;101412.78;;;21.07;62.03
29371;BME280;16357;52.188;7.838;2023-08-20T02:25:03;101410.47;;;21.04;61.84
29371;BME280;16357;52.188;7.838;2023-08-20T02:27:30;101416.13;;;21.02;61.99
29371;BME280;16357;52.188;7.838;2023-08-20T02:29:56;101411.09;;;20.99;62.41
29371;BME280;16357;52.188;7.838;2023-08-20T02:32:22;101427.03;;;20.96;62.13
29371;BME280;16357;52.188;7.838;2023-08-20T02:34:52;101428.28;;;20.93;61.81
29371;BME280;16357;52.188;7.838;2023-08-20T02:37:19;101428.69;;;20.90;62.05
29371;BME280;16357;52.188;7.838;2023-08-20T02:39:46;101438.34;;;20.86;61.51
29371;BME280;16357;52.188;7.838;2023-08-20T02:42:12;101440.44;;;20.84;62.04
29371;BME280;16357;52.188;7.838;2023-08-20T02:44:38;101446.31;;;20.81;62.26
29371;BME280;16357;52.188;7.838;2023-08-20T02:47:05;101442.09;;;20.78;62.29
29371;BME280;16357;52.188;7.838;2023-08-20T02:49:32;101439.81;;;20.75;62.48
29371;BME280;16357;52.188;7.838;2023-08-20T02:51:58;101443.13;;;20.71;62.44
29371;BME280;16357;52.188;7.838;2023-08-20T02:54:24;101435.38;;;20.68;62.47
29371;BME280;16357;52.188;7.838;2023-08-20T02:56:52;101446.69;;;20.65;62.59
29371;BME280;16357;52.188;7.838;2023-08-20T02:59:19;101443.53;;;20.61;62.29
29371;BME280;16357;52.188;7.838;2023-08-20T03:01:45;101436.19;;;20.55;63.00
29371;BME280;16357;52.188;7.838;2023-08-20T03:04:12;101435.91;;;20.50;63.09
29371;BME280;16357;52.188;7.838;2023-08-20T03:06:38;101433.16;;;20.43;63.61
29371;BME280;16357;52.188;7.838;2023-08-20T03:09:05;101440.06;;;20.39;63.78
29371;BME280;16357;52.188;7.838;2023-08-20T03:11:32;101441.50;;;20.35;64.08
29371;BME280;16357;52.188;7.838;2023-08-20T03:13:58;101441.50;;;20.35;64.33
29371;BME280;16357;52.188;7.838;2023-08-20T03:16:24;101450.56;;;20.35;64.44
29371;BME280;16357;52.188;7.838;2023-08-20T03:18:51;101439.66;;;20.35;64.21
29371;BME280;16357;52.188;7.838;2023-08-20T03:21:17;101453.06;;;20.37;64.23
29371;BME280;16357;52.188;7.838;2023-08-20T03:23:44;101451.38;;;20.36;64.11
29371;BME280;16357;52.188;7.838;2023-08-20T03:26:10;101453.06;;;20.37;64.05
29371;BME280;16357;52.188;7.838;2023-08-20T03:28:36;101446.59;;;20.38;63.29
29371;BME280;16357;52.188;7.838;2023-08-20T03:31:03;101446.59;;;20.38;63.92
29371;BME280;16357;52.188;7.838;2023-08-20T03:33:30;101445.53;;;20.39;63.78
29371;BME280;16357;52.188;7.838;2023-08-20T03:35:56;101437.53;;;20.37;63.75
29371;BME280;16357;52.188;7.838;2023-08-20T03:38:25;101446.59;;;20.38;63.66
29371;BME280;16357;52.188;7.838;2023-08-20T03:40:52;101445.72;;;20.37;63.83
29371;BME280;16357;52.188;7.838;2023-08-20T03:43:20;101452.03;;;20.38;63.93
29371;BME280;16357;52.188;7.838;2023-08-20T03:45:50;101453.69;;;20.39;63.79
29371;BME280;16357;52.188;7.838;2023-08-20T03:48:18;101433.97;;;20.37;63.95
29371;BME280;16357;52.188;7.838;2023-08-20T03:50:44;101433.97;;;20.37;63.85
29371;BME280;16357;52.188;7.838;2023-08-20T03:53:11;101440.50;;;20.36;63.71
29371;BME280;16357;52.188;7.838;2023-08-20T03:55:37;101446.13;;;20.34;64.01
29371;BME280;16357;52.188;7.838;2023-08-20T03:58:03;101442.56;;;20.34;63.62
29371;BME280;16357;52.188;7.838;2023-08-20T04:00:30;101445.50;;;20.32;64.36
29371;BME280;16357;52.188;7.838;2023-08-20T04:02:56;101434.81;;;20.31;64.27
29371;BME280;16357;52.188;7.838;2023-08-20T04:05:23;101443.19;;;20.29;64.17
29371;BME280;16357;52.188;7.838;2023-08-20T04:07:49;101446.13;;;20.28;64.12
29371;BME280;16357;52.188;7.838;2023-08-20T04:10:16;101450.09;;;20.25;64.03
29371;BME280;16357;52.188;7.838;2023-08-20T04:12:42;101444.63;;;20.25;64.44
29371;BME280;16357;52.188;7.838;2023-08-20T04:15:09;101441.28;;;20.23;64.53
29371;BME280;16357;52.188;7.838;2023-08-20T04:17:35;101441.47;;;20.22;64.50
29371;BME280;16357;52.188;7.838;2023-08-20T04:20:03;101437.06;;;20.21;64.62
29371;BME280;16357;52.188;7.838;2023-08-20T04:22:31;101438.13;;;20.20;64.28
29371;BME280;16357;52.188;7.838;2023-08-20T04:24:58;101438.13;;;20.20;64.67
29371;BME280;16357;52.188;7.838;2023-08-20T04:27:25;101442.94;;;20.17;64.56
29371;BME280;16357;52.188;7.838;2023-08-20T04:29:51;101439.56;;;20.15;64.63
29371;BME280;16357;52.188;7.838;2023-08-20T04:32:18;101431.38;;;20.15;64.68
29371;BME280;16357;52.188;7.838;2023-08-20T04:34:47;101425.94;;;20.15;64.99
29371;BME280;16357;52.188;7.838;2023-08-20T04:37:16;101423.22;;;20.15;64.57
29371;BME280;16357;52.188;7.838;2023-08-20T04:39:42;101420.69;;;20.14;64.57
29371;BME280;16357;52.188;7.838;2023-08-20T04:42:08;101428.84;;;20.14;64.66
29371;BME280;16357;52.188;7.838;2023-08-20T04:44:35;101433.69;;;20.12;64.87
29371;BME280;16357;52.188;7.838;2023-08-20T04:47:01;101435.53;;;20.11;64.92
29371;BME280;16357;52.188;7.838;2023-08-20T04:49:28;101439.31;;;20.10;65.11
29371;BME280;16357;52.188;7.838;2023-08-20T04:51:56;101445.59;;;20.11;65.46
29371;BME280;16357;52.188;7.838;2023-08-20T04:54:22;101445.59;;;20.11;65.39
29371;BME280;16357;52.188;7.838;2023-08-20T04:56:49;101443.72;;;20.11;65.43
29371;BME280;16357;52.188;7.838;2023-08-20T04:59:15;101443.72;;;20.11;65.68
29371;BME280;16357;52.188;7.838;2023-08-20T05:01:41;101442.69;;;20.12;65.32
29371;BME280;16357;52.188;7.838;2023-08-20T05:04:08;101442.47;;;20.14;66.00
29371;BME280;16357;52.188;7.838;2023-08-20T05:06:34;101449.41;;;20.16;65.87
29371;BME280;16357;52.188;7.838;2023-08-20T05:09:01;101442.72;;;20.19;65.89
29371;BME280;16357;52.188;7.838;2023-08-20T05:11:27;101448.81;;;20.21;65.93
29371;BME280;16357;52.188;7.838;2023-08-20T05:13:57;101457.41;;;20.25;66.10
29371;BME280;16357;52.188;7.838;2023-08-20T05:16:23;101451.56;;;20.28;66.14
29371;BME280;16357;52.188;7.838;2023-08-20T05:18:50;101452.81;;;20.32;65.97
29371;BME280;16357;52.188;7.838;2023-08-20T05:21:16;101458.72;;;20.35;66.28
29371;BME280;16357;52.188;7.838;2023-08-20T05:23:43;101458.97;;;20.41;66.25
29371;BME280;16357;52.188;7.838;2023-08-20T05:26:09;101467.56;;;20.44;66.16
29371;BME280;16357;52.188;7.838;2023-08-20T05:28:36;101465.25;;;20.48;66.33
29371;BME280;16357;52.188;7.838;2023-08-20T05:31:02;101472.00;;;20.52;66.53
29371;BME280;16357;52.188;7.838;2023-08-20T05:33:29;101474.16;;;20.56;66.11
29371;BME280;16357;52.188;7.838;2023-08-20T05:35:55;101474.56;;;20.60;66.18
29371;BME280;16357;52.188;7.838;2023-08-20T05:38:22;101475.63;;;20.66;66.17
29371;BME280;16357;52.188;7.838;2023-08-20T05:40:48;101467.03;;;20.69;65.89
29371;BME280;16357;52.188;7.838;2023-08-20T05:43:15;101472.72;;;20.74;66.11
29371;BME280;16357;52.188;7.838;2023-08-20T05:45:41;101474.00;;;20.78;66.09
29371;BME280;16357;52.188;7.838;2023-08-20T05:48:08;101470.63;;;20.82;66.24
29371;BME280;16357;52.188;7.838;2023-08-20T05:50:34;101470.00;;;20.87;66.08
29371;BME280;16357;52.188;7.838;2023-08-20T05:53:00;101463.13;;;20.91;66.27
29371;BME280;16357;52.188;7.838;2023-08-20T05:55:27;101466.91;;;20.97;66.23
29371;BME280;16357;52.188;7.838;2023-08-20T05:57:54;101463.31;;;21.03;66.00
29371;BME280;16357;52.188;7.838;2023-08-20T06:00:20;101474.47;;;21.08;65.93
29371;BME280;16357;52.188;7.838;2023-08-20T06:02:46;101467.31;;;21.14;66.15
29371;BME280;16357;52.188;7.838;2023-08-20T06:05:13;101471.97;;;21.20;65.84
29371;BME280;16357;52.188;7.838;2023-08-20T06:07:39;101469.47;;;21.25;66.38
29371;BME280;16357;52.188;7.838;2023-08-20T06:10:07;101471.09;;;21.33;66.38
29371;BME280;16357;52.188;7.838;2023-08-20T06:12:34;101468.63;;;21.38;66.40
29371;BME280;16357;52.188;7.838;2023-08-20T06:15:01;101469.28;;;21.46;66.50
29371;BME280;16357;52.188;7.838;2023-08-20T06:17:27;101471.16;;;21.53;66.36
29371;BME280;16357;52.188;7.838;2023-08-20T06:19:53;101469.47;;;21.58;66.19
29371;BME280;16357;52.188;7.838;2023-08-20T06:22:20;101477.66;;;21.65;66.53
29371;BME280;16357;52.188;7.838;2023-08-20T06:24:46;101478.47;;;21.72;66.49
29371;BME280;16357;52.188;7.838;2023-08-20T06:27:13;101474.91;;;21.78;66.09
29371;BME280;16357;52.188;7.838;2023-08-20T06:29:39;101476.78;;;21.84;66.02
29371;BME280;16357;52.188;7.838;2023-08-20T06:32:05;101469.41;;;21.91;65.92
29371;BME280;16357;52.188;7.838;2023-08-20T06:34:34;101480.09;;;22.00;65.64
29371;BME280;16357;52.188;7.838;2023-08-20T06:37:00;101483.69;;;22.07;66.13
29371;BME280;16357;52.188;7.838;2023-08-20T06:39:26;101486.38;;;22.13;65.54
29371;BME280;16357;52.188;7.838;2023-08-20T06:41:53;101494.38;;;22.22;65.67
29371;BME280;16357;52.188;7.838;2023-08-20T06:44:19;101486.78;;;22.30;65.72
29371;BME280;16357;52.188;7.838;2023-08-20T06:46:46;101491.78;;;22.40;65.61
29371;BME280;16357;52.188;7.838;2023-08-20T06:49:12;101480.81;;;22.47;65.53
29371;BME280;16357;52.188;7.838;2023-08-20T06:51:38;101491.72;;;22.53;65.49
29371;BME280;16357;52.188;7.838;2023-08-20T06:54:05;101489.78;;;22.61;65.15
29371;BME280;16357;52.188;7.838;2023-08-20T06:56:32;101481.56;;;22.67;65.29
29371;BME280;16357;52.188;7.838;2023-08-20T06:59:00;101486.78;;;22.75;64.86
29371;BME280;16357;52.188;7.838;2023-08-20T07:01:26;101497.22;;;22.85;64.43
29371;BME280;16357;52.188;7.838;2023-08-20T07:03:53;101487.94;;;22.93;64.76
29371;BME280;16357;52.188;7.838;2023-08-20T07:06:20;101490.22;;;23.03;64.57
29371;BME280;16357;52.188;7.838;2023-08-20T07:08:46;101487.00;;;23.12;64.22
29371;BME280;16357;52.188;7.838;2023-08-20T07:11:13;101477.44;;;23.21;64.46
29371;BME280;16357;52.188;7.838;2023-08-20T07:13:39;101476.97;;;23.31;64.07
29371;BME280;16357;52.188;7.838;2023-08-20T07:16:05;101479.19;;;23.41;63.77
29371;BME280;16357;52.188;7.838;2023-08-20T07:18:32;101485.00;;;23.51;63.97
29371;BME280;16357;52.188;7.838;2023-08-20T07:20:59;101483.44;;;23.62;63.83
29371;BME280;16357;52.188;7.838;2023-08-20T07:23:25;101480.41;;;23.70;63.36
29371;BME280;16357;52.188;7.838;2023-08-20T07:26:04;101486.00;;;23.82;63.04
29371;BME280;16357;52.188;7.838;2023-08-20T07:28:31;101481.91;;;23.91;63.28
29371;BME280;16357;52.188;7.838;2023-08-20T07:31:16;101490.22;;;24.03;62.63
29371;BME280;16357;52.188;7.838;2023-08-20T07:33:46;101490.31;;;24.15;62.41
29371;BME280;16357;52.188;7.838;2023-08-20T07:36:14;101483.91;;;24.21;62.31
29371;BME280;16357;52.188;7.838;2023-08-20T07:38:40;101491.81;;;24.29;62.07
29371;BME280;16357;52.188;7.838;2023-08-20T07:41:10;101490.66;;;24.37;61.87
29371;BME280;16357;52.188;7.838;2023-08-20T07:43:38;101493.31;;;24.43;61.50
29371;BME280;16357;52.188;7.838;2023-08-20T07:46:06;101492.44;;;24.49;61.03
29371;BME280;16357;52.188;7.838;2023-08-20T07:48:33;101483.28;;;24.56;61.64
29371;BME280;16357;52.188;7.838;2023-08-20T07:51:01;101489.28;;;24.64;61.08
29371;BME280;16357;52.188;7.838;2023-08-20T07:53:29;101489.81;;;24.73;61.66
29371;BME280;16357;52.188;7.838;2023-08-20T07:55:55;101490.53;;;24.80;61.13
29371;BME280;16357;52.188;7.838;2023-08-20T07:58:22;101491.06;;;24.89;61.44
29371;BME280;16357;52.188;7.838;2023-08-20T08:00:49;101494.31;;;24.97;61.41
29371;BME280;16357;52.188;7.838;2023-08-20T08:03:15;101492.06;;;25.06;60.69
29371;BME280;16357;52.188;7.838;2023-08-20T08:05:50;101501.44;;;25.17;60.96
29371;BME280;16357;52.188;7.838;2023-08-20T08:08:17;101500.25;;;25.25;60.44
29371;BME280;16357;52.188;7.838;2023-08-20T08:10:47;101496.09;;;25.34;59.75
29371;BME280;16357;52.188;7.838;2023-08-20T08:13:19;101498.50;;;25.42;59.95
29371;BME280;16357;52.188;7.838;2023-08-20T08:15:46;101496.72;;;25.48;60.07
29371;BME280;16357;52.188;7.838;2023-08-20T08:18:13;101489.19;;;25.55;59.75
29371;BME280;16357;52.188;7.838;2023-08-20T08:20:39;101498.75;;;25.64;59.72
29371;BME280;16357;52.188;7.838;2023-08-20T08:23:06;101495.63;;;25.72;59.46
29371;BME280;16357;52.188;7.838;2023-08-20T08:25:32;101503.56;;;25.80;59.53
29371;BME280;16357;52.188;7.838;2023-08-20T08:27:59;101505.09;;;25.88;58.81
29371;BME280;16357;52.188;7.838;2023-08-20T08:30:27;101495.91;;;25.94;58.44
29371;BME280;16357;52.188;7.838;2023-08-20T08:32:53;101501.06;;;26.02;58.67
29371;BME280;16357;52.188;7.838;2023-08-20T08:35:20;101508.09;;;26.10;58.60
29371;BME280;16357;52.188;7.838;2023-08-20T08:37:46;101504.75;;;26.20;58.06
29371;BME280;16357;52.188;7.838;2023-08-20T08:40:13;101506.25;;;26.27;57.90
29371;BME280;16357;52.188;7.838;2023-08-20T08:42:40;101499.81;;;26.34;58.38
29371;BME280;16357;52.188;7.838;2023-08-20T08:45:07;101505.75;;;26.42;58.38
29371;BME280;16357;52.188;7.838;2023-08-20T08:47:35;101502.63;;;26.50;57.85
29371;BME280;16357;52.188;7.838;2023-08-20T08:50:03;101497.34;;;26.61;57.92
29371;BME280;16357;52.188;7.838;2023-08-20T08:52:30;101500.53;;;26.69;57.35
29371;BME280;16357;52.188;7.838;2023-08-20T08:54:57;101498.81;;;26.80;56.88
29371;BME280;16357;52.188;7.838;2023-08-20T08:57:24;101495.44;;;26.90;57.14
29371;BME280;16357;52.188;7.838;2023-08-20T08:59:50;101489.50;;;26.98;56.48
29371;BME280;16357;52.188;7.838;2023-08-20T09:02:17;101496.81;;;27.04;56.41
29371;BME280;16357;52.188;7.838;2023-08-20T09:04:44;101492.78;;;27.12;56.36
29371;BME280;16357;52.188;7.838;2023-08-20T09:07:12;101491.56;;;27.20;55.86
29371;BME280;16357;52.188;7.838;2023-08-20T09:09:43;101500.84;;;27.30;55.77
29371;BME280;16357;52.188;7.838;2023-08-20T09:14:45;101501.69;;;27.48;55.26
29371;BME280;16357;52.188;7.838;2023-08-20T09:17:12;101504.63;;;27.58;55.33
29371;BME280;16357;52.188;7.838;2023-08-20T09:19:42;101498.16;;;27.69;54.53
29371;BME280;16357;52.188;7.838;2023-08-20T09:22:10;101499.16;;;27.80;54.52
29371;BME280;16357;52.188;7.838;2023-08-20T09:24:45;101503.28;;;27.94;54.07
29371;BME280;16357;52.188;7.838;2023-08-20T09:27:12;101511.19;;;28.08;53.23
29371;BME280;16357;52.188;7.838;2023-08-20T09:29:50;101511.63;;;28.21;53.24
29371;BME280;16357;52.188;7.838;2023-08-20T09:32:22;101510.13;;;28.31;53.16
29371;BME280;16357;52.188;7.838;2023-08-20T09:34:50;101511.56;;;28.38;52.55
29371;BME280;16357;52.188;7.838;2023-08-20T09:37:18;101506.72;;;28.45;52.24
29371;BME280;16357;52.188;7.838;2023-08-20T09:39:45;101508.19;;;28.53;52.37
29371;BME280;16357;52.188;7.838;2023-08-20T09:42:12;101507.72;;;28.61;51.77
29371;BME280;16357;52.188;7.838;2023-08-20T09:44:41;101511.13;;;28.69;50.91
29371;BME280;16357;52.188;7.838;2023-08-20T09:47:13;101504.31;;;28.76;51.19
29371;BME280;16357;52.188;7.838;2023-08-20T09:49:41;101507.13;;;28.81;50.74
29371;BME280;16357;52.188;7.838;2023-08-20T09:52:10;101505.00;;;28.88;51.14
29371;BME280;16357;52.188;7.838;2023-08-20T09:57:22;101503.28;;;29.09;50.63
29371;BME280;16357;52.188;7.838;2023-08-20T09:59:52;101512.53;;;29.20;49.83
29371;BME280;16357;52.188;7.838;2023-08-20T10:02:19;101511.25;;;29.33;50.74
29371;BME280;16357;52.188;7.838;2023-08-20T10:04:47;101504.97;;;29.43;49.32
29371;BME280;16357;52.188;7.838;2023-08-20T10:07:14;101508.94;;;29.52;48.52
29371;BME280;16357;52.188;7.838;2023-08-20T10:09:42;101501.50;;;29.58;48.12
29371;BME280;16357;52.188;7.838;2023-08-20T10:12:14;101501.84;;;29.66;48.23
29371;BME280;16357;52.188;7.838;2023-08-20T10:14:41;101496.38;;;29.71;47.96
29371;BME280;16357;52.188;7.838;2023-08-20T10:17:08;101499.44;;;29.80;47.87
29371;BME280;16357;52.188;7.838;2023-08-20T10:19:36;101495.94;;;29.90;47.35
29371;BME280;16357;52.188;7.838;2023-08-20T10:22:07;101493.47;;;29.98;48.24
29371;BME280;16357;52.188;7.838;2023-08-20T10:24:51;101491.59;;;30.09;47.46
29371;BME280;16357;52.188;7.838;2023-08-20T10:27:25;101499.38;;;30.17;46.76
29371;BME280;16357;52.188;7.838;2023-08-20T10:29:53;101495.81;;;30.22;46.64
29371;BME280;16357;52.188;7.838;2023-08-20T10:32:50;101500.03;;;30.30;46.69
29371;BME280;16357;52.188;7.838;2023-08-20T10:35:20;101488.97;;;30.35;46.35
29371;BME280;16357;52.188;7.838;2023-08-20T10:40:54;101487.91;;;30.51;46.50
29371;BME280;16357;52.188;7.838;2023-08-20T10:43:38;101480.75;;;30.60;46.52
29371;BME280;16357;52.188;7.838;2023-08-20T10:46:19;101476.34;;;30.70;46.55
29371;BME280;16357;52.188;7.838;2023-08-20T10:48:55;101480.25;;;30.79;45.90
29371;BME280;16357;52.188;7.838;2023-08-20T10:51:28;101476.16;;;30.92;46.22
29371;BME280;16357;52.188;7.838;2023-08-20T10:56:47;101473.09;;;31.14;45.09
29371;BME280;16357;52.188;7.838;2023-08-20T10:59:17;101485.84;;;31.25;47.21
29371;BME280;16357;52.188;7.838;2023-08-20T11:01:49;101488.91;;;31.34;44.26
29371;BME280;16357;52.188;7.838;2023-08-20T11:04:16;101479.25;;;31.41;43.25
29371;BME280;16357;52.188;7.838;2023-08-20T11:06:43;101473.41;;;31.48;42.63
29371;BME280;16357;52.188;7.838;2023-08-20T11:09:10;101479.22;;;31.52;41.97
29371;BME280;16357;52.188;7.838;2023-08-20T11:11:39;101477.81;;;31.54;41.97
29371;BME280;16357;52.188;7.838;2023-08-20T11:14:08;101482.28;;;31.55;41.80
29371;BME280;16357;52.188;7.838;2023-08-20T11:16:37;101478.09;;;31.58;42.87
29371;BME280;16357;52.188;7.838;2023-08-20T11:19:04;101481.16;;;31.61;42.19
29371;BME280;16357;52.188;7.838;2023-08-20T11:21:35;101481.97;;;31.67;41.92
29371;BME280;16357;52.188;7.838;2023-08-20T11:24:02;101476.97;;;31.74;42.16
29371;BME280;16357;52.188;7.838;2023-08-20T11:26:29;101477.75;;;31.85;41.98
29371;BME280;16357;52.188;7.838;2023-08-20T11:28:56;101473.34;;;31.94;41.37
29371;BME280;16357;52.188;7.838;2023-08-20T11:31:22;101478.56;;;32.01;40.41
29371;BME280;16357;52.188;7.838;2023-08-20T11:33:49;101473.00;;;32.06;39.84
29371;BME280;16357;52.188;7.838;2023-08-20T11:36:16;101480.22;;;32.07;40.42
29371;BME280;16357;52.188;7.838;2023-08-20T11:38:53;101480.50;;;32.10;41.02
29371;BME280;16357;52.188;7.838;2023-08-20T11:41:24;101473.25;;;32.09;40.26
29371;BME280;16357;52.188;7.838;2023-08-20T11:43:52;101484.94;;;32.06;41.08
29371;BME280;16357;52.188;7.838;2023-08-20T11:46:22;101483.88;;;32.02;41.52
29371;BME280;16357;52.188;7.838;2023-08-20T11:51:27;101474.16;;;31.84;41.61
29371;BME280;16357;52.188;7.838;2023-08-20T11:53:53;101476.97;;;31.74;41.31
29371;BME280;16357;52.188;7.838;2023-08-20T11:56:20;101477.53;;;31.66;41.74
29371;BME280;16357;52.188;7.838;2023-08-20T11:58:50;101478.09;;;31.58;40.99
29371;BME280;16357;52.188;7.838;2023-08-20T12:01:19;101477.81;;;31.49;40.38
29371;BME280;16357;52.188;7.838;2023-08-20T12:03:46;101467.03;;;31.42;40.56
29371;BME280;16357;52.188;7.838;2023-08-20T12:06:20;101468.41;;;31.40;40.25
29371;BME280;16357;52.188;7.838;2023-08-20T12:08:48;101461.75;;;31.41;41.97
29371;BME280;16357;52.188;7.838;2023-08-20T12:11:25;101455.38;;;31.40;41.01
29371;BME280;16357;52.188;7.838;2023-08-20T12:13:55;101464.81;;;31.39;42.10
29371;BME280;16357;52.188;7.838;2023-08-20T12:16:24;101457.59;;;31.43;41.30
29371;BME280;16357;52.188;7.838;2023-08-20T12:19:01;101450.38;;;31.47;41.76
29371;BME280;16357;52.188;7.838;2023-08-20T12:21:30;101449.81;;;31.56;41.53
29371;BME280;16357;52.188;7.838;2023-08-20T12:24:29;101451.44;;;31.62;41.88
29371;BME280;16357;52.188;7.838;2023-08-20T12:26:56;101459.50;;;31.63;40.44
29371;BME280;16357;52.188;7.838;2023-08-20T12:29:22;101462.28;;;31.63;40.45
29371;BME280;16357;52.188;7.838;2023-08-20T12:31:51;101458.13;;;31.61;39.57
29371;BME280;16357;52.188;7.838;2023-08-20T12:34:19;101459.50;;;31.58;38.87
29371;BME280;16357;52.188;7.838;2023-08-20T12:36:48;101450.94;;;31.55;39.12
29371;BME280;16357;52.188;7.838;2023-08-20T12:39:15;101448.44;;;31.53;38.91
29371;BME280;16357;52.188;7.838;2023-08-20T12:41:41;101452.59;;;31.56;39.10
29371;BME280;16357;52.188;7.838;2023-08-20T12:44:09;101451.75;;;31.60;38.63
29371;BME280;16357;52.188;7.838;2023-08-20T12:46:35;101456.72;;;31.63;38.11
29371;BME280;16357;52.188;7.838;2023-08-20T12:49:03;101458.13;;;31.66;38.46
29371;BME280;16357;52.188;7.838;2023-08-20T12:51:30;101457.28;;;31.65;38.36
29371;BME280;16357;52.188;7.838;2023-08-20T12:53:56;101455.34;;;31.61;38.50
29371;BME280;16357;52.188;7.838;2023-08-20T12:56:23;101447.88;;;31.56;38.61
29371;BME280;16357;52.188;7.838;2023-08-20T12:58:49;101445.41;;;31.49;38.45
29371;BME280;16357;52.188;7.838;2023-08-20T13:01:16;101437.91;;;31.45;38.84
29371;BME280;16357;52.188;7.838;2023-08-20T13:03:43;101448.75;;;31.41;38.91
29371;BME280;16357;52.188;7.838;2023-08-20T13:06:10;101437.91;;;31.40;38.76
29371;BME280;16357;52.188;7.838;2023-08-20T13:08:37;101433.50;;;31.39;38.65
29371;BME280;16357;52.188;7.838;2023-08-20T13:11:06;101428.22;;;31.37;38.89